Time;durP1;ratioP1;P1;durP2;ratioP2;P2;SDS_P1;SDS_P2;PMS_P1;PMS_P2;Temp;Humidity;BMP_temperature;BMP_pressure;BME280_temperature;BME280_humidity;BME280_pressure;Samples;Min_cycle;Max_cycle;Signal;HPM_P1;HPM_P2
2023/10/23 00:00:51;;;;;;;33.47;30.67;;;6.20;99.90;;;;;;5049446;28;20103;-79
2023/10/23 00:03:16;;;;;;;38.35;35.05;;;6.30;99.90;;;;;;5048680;28;20053;-79
2023/10/23 00:05:42;;;;;;;34.90;31.60;;;6.20;99.90;;;;;;5049655;28;20115;-79
2023/10/23 00:08:08;;;;;;;37.05;33.22;;;6.30;99.90;;;;;;5082891;28;20482;-79
2023/10/23 00:10:33;;;;;;;38.63;35.42;;;6.30;99.90;;;;;;5032876;28;20045;-79
2023/10/23 00:12:59;;;;;;;32.45;29.67;;;6.20;99.90;;;;;;5049355;28;20041;-80
2023/10/23 00:15:24;;;;;;;33.13;30.38;;;6.20;99.90;;;;;;5032853;28;20037;-79
2023/10/23 00:17:50;;;;;;;37.33;34.22;;;6.20;99.90;;;;;;5048701;28;20102;-79
2023/10/23 00:20:15;;;;;;;37.28;34.03;;;6.10;99.90;;;;;;5032530;28;20048;-80
2023/10/23 00:22:41;;;;;;;35.35;32.00;;;6.10;99.90;;;;;;5048947;28;20041;-79
2023/10/23 00:25:07;;;;;;;34.45;31.63;;;6.10;99.90;;;;;;5032390;28;20127;-79
2023/10/23 00:27:33;;;;;;;39.15;35.88;;;6.10;99.90;;;;;;5038843;28;20390;-79
2023/10/23 00:30:00;;;;;;;33.60;30.48;;;6.10;99.90;;;;;;5052240;28;20037;-79
2023/10/23 00:32:26;;;;;;;32.42;29.38;;;6.10;99.90;;;;;;5051514;28;20037;-79
2023/10/23 00:34:51;;;;;;;30.95;28.27;;;6.00;99.90;;;;;;5052155;28;20040;-79
2023/10/23 00:37:17;;;;;;;29.00;26.25;;;6.00;99.90;;;;;;5068949;28;20044;-79
2023/10/23 00:39:42;;;;;;;31.77;28.90;;;6.30;99.90;;;;;;5052009;28;20036;-79
2023/10/23 00:42:08;;;;;;;34.33;31.20;;;5.90;99.90;;;;;;5068538;28;20032;-79
2023/10/23 00:44:33;;;;;;;37.75;34.67;;;6.00;99.90;;;;;;5068602;28;20127;-80
2023/10/23 00:46:59;;;;;;;35.45;32.28;;;5.90;99.90;;;;;;5067243;28;20034;-79
2023/10/23 00:49:25;;;;;;;36.58;33.53;;;5.90;99.90;;;;;;5068710;28;20037;-80
2023/10/23 00:51:51;;;;;;;38.85;32.08;;;5.90;99.90;;;;;;5069765;28;20040;-79
2023/10/23 00:54:18;;;;;;;35.47;32.55;;;5.80;99.90;;;;;;5068414;28;20040;-80
2023/10/23 00:56:45;;;;;;;38.28;35.17;;;6.30;99.90;;;;;;5064230;28;20033;-80
2023/10/23 00:59:11;;;;;;;33.78;30.77;;;5.80;99.90;;;;;;5031927;28;20049;-79
2023/10/23 01:01:38;;;;;;;37.13;33.65;;;5.80;99.90;;;;;;5047704;28;20092;-79
2023/10/23 01:04:05;;;;;;;37.65;33.88;;;6.10;99.90;;;;;;5031653;28;20087;-79
2023/10/23 01:06:31;;;;;;;37.60;34.20;;;5.80;99.90;;;;;;5081790;28;20051;-80
2023/10/23 01:08:57;;;;;;;38.13;34.72;;;5.70;99.90;;;;;;5048422;28;20432;-79
2023/10/23 01:11:23;;;;;;;37.42;33.88;;;5.80;99.90;;;;;;5031665;28;20371;-79
2023/10/23 01:13:48;;;;;;;36.75;33.35;;;5.70;99.90;;;;;;5050519;28;20044;-79
2023/10/23 01:16:14;;;;;;;43.85;40.10;;;5.80;99.90;;;;;;5047470;28;20067;-79
2023/10/23 01:18:40;;;;;;;40.08;36.42;;;5.80;99.90;;;;;;5047998;28;20041;-79
2023/10/23 01:21:06;;;;;;;40.47;36.35;;;6.20;99.90;;;;;;5031404;28;20048;-79
2023/10/23 01:23:36;;;;;;;39.08;35.45;;;5.70;99.90;;;;;;5047784;28;20041;-79
2023/10/23 01:26:02;;;;;;;36.15;32.88;;;5.70;99.90;;;;;;5049167;28;20067;-80
2023/10/23 01:28:28;;;;;;;34.10;30.70;;;5.70;99.90;;;;;;5065521;28;20090;-80
2023/10/23 01:30:53;;;;;;;40.85;36.80;;;5.70;99.90;;;;;;5067577;28;20470;-78
2023/10/23 01:33:19;;;;;;;42.20;38.38;;;5.70;99.90;;;;;;5067961;28;20101;-78
2023/10/23 01:35:45;;;;;;;40.10;36.45;;;5.70;99.90;;;;;;5067747;28;20040;-78
2023/10/23 01:38:14;;;;;;;33.55;30.55;;;5.70;99.90;;;;;;5067766;28;20047;-80
2023/10/23 01:40:39;;;;;;;38.72;35.38;;;5.60;99.90;;;;;;5067718;28;20048;-80
2023/10/23 01:43:05;;;;;;;38.35;35.10;;;5.90;99.90;;;;;;5050062;28;20041;-81
2023/10/23 01:45:31;;;;;;;36.58;33.20;;;5.60;99.90;;;;;;5059275;28;20101;-80
2023/10/23 01:47:56;;;;;;;35.63;32.22;;;5.60;99.90;;;;;;5067539;28;20044;-78
2023/10/23 01:50:24;;;;;;;43.17;39.20;;;5.60;99.90;;;;;;5050884;28;20036;-78
2023/10/23 01:52:49;;;;;;;37.85;34.25;;;5.60;99.90;;;;;;5067551;28;20052;-78
2023/10/23 01:55:15;;;;;;;35.45;32.03;;;5.60;99.90;;;;;;5067392;28;20036;-78
2023/10/23 01:57:41;;;;;;;38.88;35.35;;;5.60;99.90;;;;;;5055264;28;20041;-78
2023/10/23 02:00:09;;;;;;;43.75;40.03;;;5.60;99.90;;;;;;5030966;28;20041;-81
2023/10/23 02:02:35;;;;;;;37.88;34.28;;;5.60;99.90;;;;;;5048420;28;20099;-79
2023/10/23 02:05:00;;;;;;;36.22;32.88;;;5.50;99.90;;;;;;5048710;28;20494;-78
2023/10/23 02:07:27;;;;;;;43.60;39.53;;;5.50;99.90;;;;;;5030605;28;20037;-78
2023/10/23 02:09:53;;;;;;;37.53;34.22;;;5.50;99.90;;;;;;5047235;28;20052;-78
2023/10/23 02:12:18;;;;;;;40.17;36.53;;;5.50;99.90;;;;;;5047918;28;20248;-78
2023/10/23 02:14:44;;;;;;;37.90;34.35;;;5.50;99.90;;;;;;5047177;28;20037;-78
2023/10/23 02:17:10;;;;;;;33.45;30.17;;;5.50;99.90;;;;;;5047287;28;20314;-79
2023/10/23 02:19:35;;;;;;;39.40;35.58;;;5.50;99.90;;;;;;5047100;28;20376;-79
2023/10/23 02:22:01;;;;;;;37.47;33.90;;;5.70;99.90;;;;;;5047230;28;20064;-79
2023/10/23 02:24:27;;;;;;;36.38;32.97;;;5.40;99.90;;;;;;5030556;28;20048;-78
2023/10/23 02:26:54;;;;;;;37.30;33.35;;;5.40;99.90;;;;;;5054650;28;20498;-78
2023/10/23 02:29:19;;;;;;;39.35;35.65;;;5.40;99.90;;;;;;5067344;28;20070;-79
2023/10/23 02:31:45;;;;;;;38.20;34.70;;;5.40;99.90;;;;;;5067015;28;20036;-78
2023/10/23 02:34:11;;;;;;;37.28;33.70;;;5.30;99.90;;;;;;5066973;28;20048;-78
2023/10/23 02:36:37;;;;;;;31.55;28.20;;;5.30;99.90;;;;;;5066935;28;20043;-78
2023/10/23 02:39:03;;;;;;;40.35;36.90;;;5.30;99.90;;;;;;5050207;28;20048;-78
2023/10/23 02:41:29;;;;;;;39.30;35.75;;;5.30;99.90;;;;;;5049289;28;20040;-78
2023/10/23 02:43:55;;;;;;;42.22;38.08;;;5.30;99.90;;;;;;5066941;28;20044;-78
2023/10/23 02:46:21;;;;;;;36.35;33.10;;;5.30;99.90;;;;;;5066769;28;20701;-78
2023/10/23 02:48:46;;;;;;;38.22;34.55;;;5.30;99.90;;;;;;5067263;28;20047;-78
2023/10/23 02:51:12;;;;;;;35.28;31.77;;;5.30;99.90;;;;;;5066625;28;20071;-78
2023/10/23 02:53:38;;;;;;;40.05;36.40;;;5.30;99.90;;;;;;5066731;28;20036;-79
2023/10/23 02:56:09;;;;;;;37.55;34.35;;;5.30;99.90;;;;;;5059981;28;20091;-78
2023/10/23 02:58:35;;;;;;;35.97;32.63;;;5.30;99.90;;;;;;5030385;28;20072;-78
2023/10/23 03:01:01;;;;;;;45.25;41.20;;;5.20;99.90;;;;;;5046684;28;20123;-79
2023/10/23 03:03:26;;;;;;;36.13;32.40;;;5.20;99.90;;;;;;5046399;28;20128;-78
2023/10/23 03:05:52;;;;;;;41.10;37.20;;;5.20;99.90;;;;;;5046871;28;20040;-78
2023/10/23 03:08:18;;;;;;;42.03;37.83;;;5.20;99.90;;;;;;5047033;28;20349;-78
2023/10/23 03:10:43;;;;;;;38.65;34.80;;;5.30;99.90;;;;;;5032217;28;20033;-78
2023/10/23 03:13:09;;;;;;;43.78;40.08;;;5.20;99.90;;;;;;5050755;28;20048;-78
2023/10/23 03:15:36;;;;;;;40.25;36.35;;;5.20;99.90;;;;;;5050521;28;20044;-78
2023/10/23 03:18:03;;;;;;;42.35;38.05;;;5.20;99.90;;;;;;5083771;28;20041;-78
2023/10/23 03:20:30;;;;;;;40.17;36.63;;;5.20;99.90;;;;;;5033754;28;20063;-78
2023/10/23 03:22:55;;;;;;;46.25;41.65;;;5.20;99.90;;;;;;5050224;28;20155;-78
2023/10/23 03:25:21;;;;;;;38.83;35.03;;;5.10;99.90;;;;;;5078577;28;20053;-78
2023/10/23 03:27:47;;;;;;;38.63;34.55;;;5.10;99.90;;;;;;5046821;28;20212;-78
2023/10/23 03:30:12;;;;;;;36.85;33.15;;;5.10;99.90;;;;;;5046470;28;20462;-78
2023/10/23 03:32:38;;;;;;;42.83;36.60;;;5.10;99.90;;;;;;5063355;28;20053;-78
2023/10/23 03:35:04;;;;;;;44.60;40.65;;;5.10;99.90;;;;;;5046535;28;20037;-78
2023/10/23 03:37:29;;;;;;;41.95;37.95;;;5.10;99.90;;;;;;5063009;28;20037;-78
2023/10/23 03:39:55;;;;;;;43.58;39.53;;;5.20;99.90;;;;;;5062486;28;20053;-78
2023/10/23 03:42:21;;;;;;;42.40;38.65;;;5.10;99.90;;;;;;5046334;28;20041;-79
2023/10/23 03:44:46;;;;;;;43.60;39.42;;;5.10;99.90;;;;;;5063053;28;20072;-79
2023/10/23 03:47:12;;;;;;;38.90;35.38;;;5.10;99.90;;;;;;5013010;28;20168;-78
2023/10/23 03:49:37;;;;;;;37.75;33.92;;;5.80;99.90;;;;;;5029572;28;20046;-79
2023/10/23 03:52:03;;;;;;;39.28;35.58;;;5.00;99.90;;;;;;5062970;28;20382;-78
2023/10/23 03:54:29;;;;;;;36.65;33.30;;;5.00;99.90;;;;;;5037748;28;20037;-78
2023/10/23 03:56:54;;;;;;;39.42;35.70;;;5.00;99.90;;;;;;5054870;28;20445;-78
2023/10/23 03:59:20;;;;;;;40.03;36.13;;;5.00;99.90;;;;;;5048196;28;20083;-78
2023/10/23 04:01:45;;;;;;;41.13;37.25;;;5.00;99.90;;;;;;5048682;28;20049;-79
2023/10/23 04:04:11;;;;;;;40.55;34.70;;;5.00;99.90;;;;;;5032794;28;20080;-78
2023/10/23 04:06:39;;;;;;;41.42;37.28;;;4.90;99.90;;;;;;5032410;28;20090;-78
2023/10/23 04:09:06;;;;;;;45.35;41.47;;;4.90;99.90;;;;;;5032043;28;20029;-78
2023/10/23 04:11:32;;;;;;;38.22;34.55;;;5.00;99.90;;;;;;5032445;28;20037;-78
2023/10/23 04:13:57;;;;;;;41.30;37.33;;;4.90;99.90;;;;;;5032474;28;20409;-78
2023/10/23 04:16:23;;;;;;;39.22;35.38;;;4.90;99.90;;;;;;5032488;28;20483;-79
2023/10/23 04:18:48;;;;;;;42.65;38.38;;;4.90;99.90;;;;;;5048928;28;20044;-78
2023/10/23 04:21:14;;;;;;;39.10;35.22;;;4.90;99.90;;;;;;5049802;28;20033;-79
2023/10/23 04:23:40;;;;;;;41.92;35.33;;;5.00;99.90;;;;;;5063344;28;20047;-77
2023/10/23 04:26:07;;;;;;;46.20;41.42;;;4.90;99.90;;;;;;5068239;28;20062;-81
2023/10/23 04:28:33;;;;;;;46.55;42.45;;;4.90;99.90;;;;;;5068782;28;20044;-81
2023/10/23 04:30:59;;;;;;;43.97;39.85;;;4.90;99.90;;;;;;5052083;28;20077;-78
2023/10/23 04:33:25;;;;;;;45.15;40.55;;;4.80;99.90;;;;;;5068500;28;20032;-80
2023/10/23 04:36:00;;;;;;;47.40;42.80;;;4.80;99.90;;;;;;5068621;28;20052;-80
2023/10/23 04:38:26;;;;;;;50.47;45.58;;;4.80;99.90;;;;;;5067279;28;20041;-80
2023/10/23 04:40:55;;;;;;;45.90;41.47;;;4.80;99.90;;;;;;5068036;28;20397;-80
2023/10/23 04:43:21;;;;;;;46.13;41.33;;;4.90;99.90;;;;;;5068459;28;20048;-81
2023/10/23 04:45:48;;;;;;;46.60;41.78;;;4.90;99.90;;;;;;5068396;28;20446;-80
2023/10/23 04:48:13;;;;;;;47.65;42.75;;;4.90;99.90;;;;;;5068476;28;20072;-80
2023/10/23 04:50:39;;;;;;;45.15;40.67;;;4.90;99.90;;;;;;5068137;28;20133;-81
2023/10/23 04:53:08;;;;;;;44.15;39.78;;;4.90;99.90;;;;;;5037531;28;20041;-81
2023/10/23 04:55:36;;;;;;;44.45;40.45;;;5.10;99.90;;;;;;5031746;28;20482;-81
2023/10/23 04:58:02;;;;;;;50.22;45.40;;;4.90;99.90;;;;;;5048139;28;20124;-81
2023/10/23 05:00:28;;;;;;;41.63;37.28;;;4.90;99.90;;;;;;5031630;28;20098;-81
2023/10/23 05:02:54;;;;;;;46.90;42.00;;;4.90;99.90;;;;;;5048088;28;20053;-80
2023/10/23 05:05:20;;;;;;;46.33;41.88;;;4.90;99.90;;;;;;5047987;28;20564;-80
2023/10/23 05:07:46;;;;;;;48.72;43.90;;;4.90;99.90;;;;;;5047875;28;20036;-81
2023/10/23 05:10:11;;;;;;;44.88;40.20;;;4.90;99.90;;;;;;5055629;28;20542;-80
2023/10/23 05:12:38;;;;;;;44.67;40.55;;;4.80;99.90;;;;;;5065318;28;20098;-80
2023/10/23 05:15:05;;;;;;;44.42;40.15;;;4.90;99.90;;;;;;5048283;28;20113;-80
2023/10/23 05:17:30;;;;;;;44.53;40.58;;;4.80;99.90;;;;;;5047695;28;20508;-79
2023/10/23 05:19:56;;;;;;;46.03;41.50;;;4.30;99.90;;;;;;5047710;28;20029;-79
2023/10/23 05:22:22;;;;;;;45.70;41.20;;;4.70;99.90;;;;;;5030902;28;20037;-78
2023/10/23 05:24:48;;;;;;;39.97;35.80;;;4.70;99.90;;;;;;5031114;28;20036;-79
2023/10/23 05:27:14;;;;;;;38.50;34.53;;;4.70;99.90;;;;;;5048752;28;20037;-79
2023/10/23 05:29:40;;;;;;;40.83;36.63;;;4.70;99.90;;;;;;5050670;28;20086;-79
2023/10/23 05:32:06;;;;;;;45.33;39.53;;;4.60;99.90;;;;;;5067236;28;20131;-79
2023/10/23 05:34:35;;;;;;;38.47;34.80;;;4.60;99.90;;;;;;5065277;28;20454;-79
2023/10/23 05:37:01;;;;;;;39.08;35.03;;;4.60;99.90;;;;;;5030665;28;20048;-79
2023/10/23 05:39:27;;;;;;;38.22;34.38;;;4.60;99.90;;;;;;5031271;28;20245;-79
2023/10/23 05:41:53;;;;;;;37.58;33.83;;;4.60;99.90;;;;;;5047741;28;20390;-79
2023/10/23 05:44:18;;;;;;;38.08;34.45;;;4.60;99.90;;;;;;5047088;28;20033;-79
2023/10/23 05:46:44;;;;;;;39.47;35.85;;;4.60;99.90;;;;;;5047148;28;20450;-79
2023/10/23 05:49:09;;;;;;;39.47;35.13;;;4.50;99.90;;;;;;5080568;28;20037;-80
2023/10/23 05:51:35;;;;;;;35.40;32.00;;;4.50;99.90;;;;;;5047081;28;20071;-79
2023/10/23 05:54:02;;;;;;;38.75;34.75;;;4.50;99.90;;;;;;5048537;28;20123;-79
2023/10/23 05:56:28;;;;;;;43.78;39.35;;;4.50;99.90;;;;;;5047098;28;20037;-79
2023/10/23 05:58:54;;;;;;;46.58;41.83;;;4.50;99.90;;;;;;5047582;28;20456;-79
2023/10/23 06:01:19;;;;;;;46.85;41.75;;;4.50;99.90;;;;;;5047071;28;20148;-79
2023/10/23 06:03:45;;;;;;;47.65;42.53;;;4.50;99.90;;;;;;5030387;28;20413;-79
2023/10/23 06:06:12;;;;;;;46.78;41.75;;;4.60;99.90;;;;;;5046644;28;20497;-80
2023/10/23 06:08:39;;;;;;;51.33;46.13;;;4.60;99.90;;;;;;5030490;28;20128;-79
2023/10/23 06:11:10;;;;;;;53.22;47.70;;;4.60;99.90;;;;;;5031218;28;20092;-78
2023/10/23 06:13:35;;;;;;;47.88;43.05;;;4.60;99.90;;;;;;5047274;28;20081;-79
2023/10/23 06:16:04;;;;;;;46.75;41.47;;;4.60;99.90;;;;;;5030621;28;20068;-79
2023/10/23 06:18:33;;;;;;;48.25;43.33;;;4.60;99.90;;;;;;5030393;28;20487;-79
2023/10/23 06:21:03;;;;;;;48.25;43.30;;;4.60;99.90;;;;;;5047412;28;20049;-79
2023/10/23 06:23:35;;;;;;;52.20;47.17;;;4.60;99.90;;;;;;5037398;28;20136;-79
2023/10/23 06:26:01;;;;;;;49.65;44.63;;;4.60;99.90;;;;;;5050166;28;20036;-79
2023/10/23 06:28:27;;;;;;;49.25;44.45;;;4.60;99.90;;;;;;5067036;28;20058;-79
2023/10/23 06:30:52;;;;;;;52.00;44.85;;;5.60;99.90;;;;;;5050742;28;20066;-79
2023/10/23 06:33:18;;;;;;;48.80;43.65;;;4.60;99.90;;;;;;5049953;28;20040;-79
2023/10/23 06:35:44;;;;;;;49.67;44.63;;;4.60;99.90;;;;;;5050268;28;20085;-79
2023/10/23 06:38:10;;;;;;;47.10;42.53;;;4.70;99.90;;;;;;5066989;28;20092;-79
2023/10/23 06:40:35;;;;;;;52.47;44.33;;;4.60;99.90;;;;;;5047574;28;20496;-79
2023/10/23 06:43:01;;;;;;;50.28;44.97;;;4.70;99.90;;;;;;5055802;28;20040;-79
2023/10/23 06:45:26;;;;;;;45.78;41.30;;;4.70;99.90;;;;;;5052340;28;20564;-80
2023/10/23 06:47:52;;;;;;;50.25;44.75;;;4.70;99.90;;;;;;5053343;28;20383;-79
2023/10/23 06:50:18;;;;;;;48.50;43.35;;;4.70;99.90;;;;;;5070630;28;20398;-81
2023/10/23 06:52:44;;;;;;;59.58;47.90;;;4.70;99.90;;;;;;5070800;28;20080;-79
2023/10/23 06:55:10;;;;;;;49.45;44.45;;;4.70;99.90;;;;;;5070250;28;20067;-79
2023/10/23 06:57:36;;;;;;;46.03;41.05;;;4.70;99.90;;;;;;5062424;28;20049;-79
2023/10/23 07:00:02;;;;;;;51.58;46.20;;;4.70;99.90;;;;;;5034123;28;20037;-80
2023/10/23 07:02:27;;;;;;;50.92;43.38;;;4.80;99.90;;;;;;5049859;28;20053;-79
2023/10/23 07:04:53;;;;;;;47.80;42.78;;;4.80;99.90;;;;;;5050709;28;20128;-79
2023/10/23 07:07:19;;;;;;;48.58;43.38;;;4.80;99.90;;;;;;5050434;28;20048;-79
2023/10/23 07:09:45;;;;;;;51.08;43.85;;;4.80;99.90;;;;;;5033934;28;20072;-79
2023/10/23 07:12:11;;;;;;;47.60;42.72;;;4.90;99.90;;;;;;5039761;28;20561;-80
2023/10/23 07:14:36;;;;;;;47.33;42.20;;;4.90;99.90;;;;;;5053903;28;20132;-80
2023/10/23 07:17:02;;;;;;;46.20;38.78;;;5.00;99.90;;;;;;5070042;28;20037;-80
2023/10/23 07:19:27;;;;;;;48.03;37.97;;;5.10;99.90;;;;;;5070509;28;20120;-79
2023/10/23 07:21:53;;;;;;;46.92;41.72;;;5.10;99.90;;;;;;5070103;28;20037;-79
2023/10/23 07:24:19;;;;;;;58.10;46.45;;;5.20;99.90;;;;;;5070043;28;20466;-80
2023/10/23 07:26:44;;;;;;;51.30;42.15;;;5.20;99.90;;;;;;5040755;28;20032;-78
2023/10/23 07:29:10;;;;;;;47.75;40.85;;;5.20;99.90;;;;;;5031988;28;20403;-79
2023/10/23 07:31:36;;;;;;;47.40;41.38;;;5.30;99.90;;;;;;5047499;28;20119;-79
2023/10/23 07:34:03;;;;;;;49.17;44.10;;;5.30;99.90;;;;;;5048229;28;20032;-80
2023/10/23 07:36:29;;;;;;;47.40;41.88;;;5.40;99.90;;;;;;5069672;28;20187;-80
2023/10/23 07:38:55;;;;;;;47.25;42.35;;;5.40;99.90;;;;;;5053216;28;20118;-79
2023/10/23 07:41:21;;;;;;;47.72;37.55;;;5.40;99.90;;;;;;5069129;28;20040;-79
2023/10/23 07:43:46;;;;;;;47.55;41.15;;;5.50;99.90;;;;;;5052092;28;20486;-79
2023/10/23 07:46:12;;;;;;;48.72;40.05;;;5.50;99.90;;;;;;5052658;28;20474;-79
2023/10/23 07:48:39;;;;;;;51.75;45.85;;;5.60;99.90;;;;;;5048304;28;20390;-79
2023/10/23 07:51:04;;;;;;;52.08;42.17;;;5.60;99.90;;;;;;5049378;28;20039;-79
2023/10/23 07:53:32;;;;;;;48.88;41.67;;;5.70;99.90;;;;;;5032707;28;20037;-80
2023/10/23 07:55:58;;;;;;;57.65;44.13;;;5.80;99.90;;;;;;5048547;28;20041;-82
2023/10/23 07:58:24;;;;;;;56.60;43.47;;;5.90;99.90;;;;;;5042506;28;20136;-79
2023/10/23 08:00:53;;;;;;;58.28;44.35;;;6.00;99.90;;;;;;5045060;28;20123;-80
2023/10/23 08:03:19;;;;;;;49.55;41.00;;;6.10;99.90;;;;;;5069340;28;20044;-79
2023/10/23 08:05:46;;;;;;;55.65;49.20;;;6.20;99.90;;;;;;5069784;28;20131;-79
2023/10/23 08:08:12;;;;;;;65.72;50.67;;;6.30;99.90;;;;;;5069969;28;20120;-79
2023/10/23 08:10:37;;;;;;;56.47;49.10;;;6.40;99.90;;;;;;5072429;28;20072;-79
2023/10/23 08:13:03;;;;;;;56.47;47.70;;;6.50;99.90;;;;;;5070041;28;20429;-79
2023/10/23 08:15:29;;;;;;;60.33;53.17;;;6.50;99.90;;;;;;5069035;28;20128;-79
2023/10/23 08:17:54;;;;;;;63.25;50.20;;;6.60;99.90;;;;;;5059265;28;20127;-79
2023/10/23 08:20:20;;;;;;;60.33;50.00;;;6.70;99.90;;;;;;5062182;28;20419;-79
2023/10/23 08:22:46;;;;;;;78.07;55.38;;;6.70;99.90;;;;;;5069090;28;20051;-79
2023/10/23 08:25:12;;;;;;;67.57;52.33;;;6.80;99.90;;;;;;5068845;28;20040;-79
2023/10/23 08:27:37;;;;;;;63.13;56.45;;;6.90;99.90;;;;;;5068896;28;20036;-80
2023/10/23 08:30:04;;;;;;;69.57;56.78;;;7.00;99.90;;;;;;5068464;28;20032;-79
2023/10/23 08:32:30;;;;;;;63.72;54.80;;;7.00;99.90;;;;;;5069186;28;20445;-79
2023/10/23 08:34:56;;;;;;;64.78;53.85;;;7.00;99.90;;;;;;5067589;28;20125;-80
2023/10/23 08:37:21;;;;;;;69.68;54.58;;;7.10;99.90;;;;;;5051976;28;20486;-79
2023/10/23 08:39:47;;;;;;;64.43;52.42;;;7.20;99.90;;;;;;5032373;28;20752;-79
2023/10/23 08:42:13;;;;;;;52.67;46.92;;;7.20;99.90;;;;;;5032251;28;20048;-79
2023/10/23 08:44:39;;;;;;;56.63;50.70;;;7.30;99.90;;;;;;5081892;28;20041;-79
2023/10/23 08:47:05;;;;;;;57.45;51.83;;;7.40;99.90;;;;;;5048568;28;20112;-79
2023/10/23 08:49:30;;;;;;;53.85;48.33;;;7.40;99.90;;;;;;5037843;28;20163;-79
2023/10/23 08:51:59;;;;;;;57.47;51.53;;;7.50;99.90;;;;;;5068578;28;20470;-79
2023/10/23 08:54:27;;;;;;;52.20;47.05;;;7.60;99.90;;;;;;5068208;28;20036;-79
2023/10/23 08:56:59;;;;;;;52.80;47.45;;;7.70;99.90;;;;;;5068252;28;20040;-79
2023/10/23 08:59:25;;;;;;;61.63;56.17;;;7.70;99.90;;;;;;5067658;28;20123;-79
2023/10/23 09:01:50;;;;;;;51.25;45.78;;;7.80;99.90;;;;;;5067924;28;20135;-79
2023/10/23 09:04:16;;;;;;;52.70;46.90;;;7.90;99.90;;;;;;5051116;28;20133;-79
2023/10/23 09:06:42;;;;;;;52.35;47.17;;;7.90;99.90;;;;;;5067585;28;20405;-78
2023/10/23 09:09:08;;;;;;;49.22;44.25;;;8.30;99.90;;;;;;5067730;28;20105;-79
2023/10/23 09:11:45;;;;;;;49.17;44.17;;;8.40;99.90;;;;;;5067956;28;20036;-79
2023/10/23 09:14:23;;;;;;;44.75;40.22;;;8.50;99.90;;;;;;5050851;28;20147;-80
2023/10/23 09:16:49;;;;;;;43.72;39.33;;;8.10;99.90;;;;;;5051174;28;20494;-78
2023/10/23 09:19:25;;;;;;;43.25;38.65;;;8.20;99.90;;;;;;5060063;28;20063;-78
2023/10/23 09:21:55;;;;;;;50.55;45.65;;;8.30;99.90;;;;;;5047786;28;20101;-79
2023/10/23 09:24:22;;;;;;;43.97;39.90;;;8.80;99.90;;;;;;5031052;28;20128;-80
2023/10/23 09:26:50;;;;;;;52.13;47.72;;;8.50;99.90;;;;;;5031189;28;20033;-79
2023/10/23 09:29:20;;;;;;;54.42;49.95;;;8.60;99.90;;;;;;5047422;28;20433;-78
2023/10/23 09:31:46;;;;;;;45.92;42.03;;;8.60;99.90;;;;;;5031308;28;20042;-79
2023/10/23 09:34:12;;;;;;;51.70;47.70;;;8.70;99.90;;;;;;5047826;28;20056;-79
2023/10/23 09:36:38;;;;;;;46.45;42.55;;;9.10;99.90;;;;;;5051887;28;20402;-79
2023/10/23 09:39:04;;;;;;;48.17;43.88;;;8.80;99.90;;;;;;5050910;28;20044;-79
2023/10/23 09:41:30;;;;;;;44.80;40.95;;;8.90;99.90;;;;;;5050833;28;20555;-79
2023/10/23 09:43:57;;;;;;;50.58;45.97;;;8.90;99.90;;;;;;5050153;28;20070;-79
2023/10/23 09:46:27;;;;;;;48.83;44.83;;;9.10;99.90;;;;;;5067451;28;20047;-79
2023/10/23 09:48:55;;;;;;;47.33;43.05;;;9.00;99.90;;;;;;5049224;28;20033;-79
2023/10/23 09:51:28;;;;;;;42.35;38.50;;;9.10;99.90;;;;;;5047573;28;20041;-79
2023/10/23 09:53:59;;;;;;;40.67;37.05;;;9.30;99.90;;;;;;5030928;28;20040;-79
2023/10/23 09:56:30;;;;;;;41.47;38.08;;;9.50;99.90;;;;;;5030121;28;20069;-79
2023/10/23 09:59:00;;;;;;;47.03;42.42;;;9.40;99.90;;;;;;5030575;28;20033;-79
2023/10/23 10:01:42;;;;;;;51.17;46.50;;;9.40;99.90;;;;;;5047154;28;20057;-79
2023/10/23 10:04:25;;;;;;;41.42;37.28;;;9.60;99.90;;;;;;5030397;28;20041;-79
2023/10/23 10:06:54;;;;;;;43.55;39.83;;;9.80;99.90;;;;;;5048255;28;20518;-79
2023/10/23 10:09:25;;;;;;;41.05;37.38;;;10.00;99.90;;;;;;5030721;28;20674;-79
2023/10/23 10:11:54;;;;;;;34.60;31.30;;;10.10;99.90;;;;;;5030315;28;20045;-79
2023/10/23 10:14:21;;;;;;;34.60;31.58;;;10.10;99.90;;;;;;5047362;28;20045;-79
2023/10/23 10:16:47;;;;;;;35.50;32.20;;;10.20;99.90;;;;;;5047129;28;20565;-79
2023/10/23 10:19:16;;;;;;;35.67;32.45;;;10.30;99.90;;;;;;5049709;28;20045;-79
2023/10/23 10:21:54;;;;;;;38.42;34.92;;;10.40;99.90;;;;;;5051106;28;20037;-78
2023/10/23 10:24:20;;;;;;;31.70;28.80;;;10.40;99.90;;;;;;5051326;28;20548;-78
2023/10/23 10:26:48;;;;;;;33.85;30.85;;;10.50;99.90;;;;;;5033945;28;20041;-80
2023/10/23 10:29:14;;;;;;;29.23;26.60;;;10.80;99.90;;;;;;5034440;28;20076;-79
2023/10/23 10:32:01;;;;;;;34.78;31.80;;;10.60;99.90;;;;;;5034662;28;20140;-79
2023/10/23 10:34:27;;;;;;;33.97;30.55;;;10.70;99.90;;;;;;5050917;28;20068;-79
2023/10/23 10:36:54;;;;;;;31.80;28.70;;;10.80;99.90;;;;;;5049597;28;20032;-79
2023/10/23 10:39:19;;;;;;;38.83;35.45;;;10.80;99.90;;;;;;5054026;28;20033;-79
2023/10/23 10:41:45;;;;;;;40.95;37.72;;;10.90;99.90;;;;;;5070302;28;20084;-80
2023/10/23 10:44:11;;;;;;;28.15;25.73;;;11.00;99.90;;;;;;5070791;28;20510;-80
2023/10/23 10:46:40;;;;;;;24.05;21.80;;;11.00;99.90;;;;;;5070773;28;20636;-79
2023/10/23 10:49:06;;;;;;;26.40;23.77;;;11.10;99.90;;;;;;5054074;28;20102;-79
2023/10/23 10:51:31;;;;;;;22.35;19.02;;;11.20;99.90;;;;;;5065669;28;20045;-78
2023/10/23 10:54:03;;;;;;;21.38;18.95;;;11.30;99.90;;;;;;5040132;28;20033;-79
2023/10/23 10:56:30;;;;;;;26.85;24.55;;;11.30;99.90;;;;;;5050158;28;20041;-80
2023/10/23 10:59:02;;;;;;;30.23;27.45;;;11.40;99.90;;;;;;5033384;28;20109;-80
2023/10/23 11:01:28;;;;;;;23.87;21.77;;;11.40;99.90;;;;;;5049975;28;20053;-79
2023/10/23 11:03:54;;;;;;;22.58;20.42;;;11.40;99.90;;;;;;5049901;28;20195;-79
2023/10/23 11:06:19;;;;;;;26.23;23.90;;;11.50;99.90;;;;;;5033682;28;20045;-79
2023/10/23 11:08:48;;;;;;;28.73;26.15;;;11.60;99.90;;;;;;5038043;28;20185;-78
2023/10/23 11:11:14;;;;;;;26.98;24.38;;;11.70;99.90;;;;;;5069667;28;20036;-79
2023/10/23 11:13:43;;;;;;;31.70;29.13;;;11.80;99.90;;;;;;5069801;28;20501;-79
2023/10/23 11:16:11;;;;;;;23.33;21.13;;;11.80;99.90;;;;;;5069086;28;20047;-79
2023/10/23 11:18:37;;;;;;;25.30;22.60;;;11.90;99.90;;;;;;5052919;28;20367;-80
2023/10/23 11:21:05;;;;;;;24.95;22.52;;;12.00;99.90;;;;;;5069894;28;20040;-79
2023/10/23 11:23:30;;;;;;;29.48;26.65;;;12.00;99.90;;;;;;5052435;28;20510;-79
2023/10/23 11:25:56;;;;;;;23.75;21.25;;;12.10;99.90;;;;;;5069570;28;20080;-79
2023/10/23 11:28:23;;;;;;;25.48;21.00;;;12.50;99.90;;;;;;5069593;28;20040;-79
2023/10/23 11:30:56;;;;;;;28.38;25.60;;;12.30;99.90;;;;;;5068799;28;20577;-80
2023/10/23 11:33:21;;;;;;;38.63;35.40;;;12.40;99.90;;;;;;5069313;28;20033;-80
2023/10/23 11:35:47;;;;;;;28.00;25.50;;;12.50;99.90;;;;;;5069483;28;20353;-79
2023/10/23 11:38:20;;;;;;;27.25;24.52;;;12.50;99.90;;;;;;5039957;28;20116;-78
2023/10/23 11:40:46;;;;;;;23.38;20.98;;;12.60;99.90;;;;;;5049167;28;20037;-78
2023/10/23 11:43:13;;;;;;;24.45;22.02;;;12.50;99.90;;;;;;5049714;28;20487;-79
2023/10/23 11:45:45;;;;;;;23.25;20.40;;;12.50;99.90;;;;;;5049235;28;20029;-80
2023/10/23 11:48:14;;;;;;;26.35;23.67;;;12.40;99.90;;;;;;5032833;28;20058;-79
2023/10/23 11:50:41;;;;;;;30.27;27.52;;;12.70;99.90;;;;;;5048987;28;20119;-80
2023/10/23 11:53:06;;;;;;;30.00;27.25;;;12.40;99.90;;;;;;5048703;28;20099;-80
2023/10/23 11:55:33;;;;;;;30.38;25.42;;;12.30;99.90;;;;;;5052630;28;20045;-80
2023/10/23 11:58:00;;;;;;;28.17;25.70;;;12.30;99.90;;;;;;5047072;28;20045;-79
2023/10/23 12:00:27;;;;;;;29.25;26.48;;;12.30;99.90;;;;;;5048948;28;20067;-78
2023/10/23 12:02:53;;;;;;;31.42;28.73;;;12.40;99.90;;;;;;5047753;28;20053;-79
2023/10/23 12:05:21;;;;;;;29.17;26.70;;;12.30;99.90;;;;;;5048628;28;20087;-79
2023/10/23 12:07:52;;;;;;;34.30;31.48;;;12.30;99.90;;;;;;5048361;28;20394;-79
2023/10/23 12:10:19;;;;;;;30.33;27.80;;;12.20;99.90;;;;;;5048411;28;20628;-79
2023/10/23 12:12:46;;;;;;;28.35;25.77;;;12.00;99.90;;;;;;5048617;28;20433;-79
2023/10/23 12:15:14;;;;;;;23.35;21.25;;;12.00;99.90;;;;;;5041288;28;20053;-78
2023/10/23 12:17:40;;;;;;;32.65;29.85;;;11.90;99.90;;;;;;5069855;28;20049;-79
2023/10/23 12:20:08;;;;;;;30.05;27.48;;;11.80;99.90;;;;;;5068648;28;20059;-79
2023/10/23 12:22:39;;;;;;;33.83;31.05;;;11.70;99.90;;;;;;5069207;28;20036;-79
2023/10/23 12:25:05;;;;;;;23.35;21.05;;;11.60;99.90;;;;;;5069631;28;20036;-79
2023/10/23 12:27:34;;;;;;;27.58;25.08;;;11.60;99.90;;;;;;5051932;28;20052;-79
2023/10/23 12:30:04;;;;;;;31.60;28.85;;;11.50;99.90;;;;;;5069283;28;20052;-80
2023/10/23 12:32:34;;;;;;;43.90;40.53;;;11.50;99.90;;;;;;5069507;28;20040;-80